CPA331 UERR-VHHH
Flight info
| Callsign | CPA331 |
|---|---|
| Flight time | N/A |
| Altitude | 37000 |
| Route | REPKI2H/25 REPKI R816 LEBNA A946 MASOM T656 GABAL/K0882F380 N615 SULOK/K0883S1160 Y327 POLHO G218 TMR B458 DADGA W37 OMBEB R473 WYN W18 NLG W23 ZUH R473 SIERA SIERA7A |
| Aircraft | A339/H-SADE1E2E3GHIJ3J5M1P2RWXY/LB2D1 |
Departure
| Time | 2026-05-07 09:40 |
|---|---|
| Airport | Mirny Airport (UERR) |
Arrival
| Time | N/A |
|---|---|
| Airport | Hong Kong International Airport (VHHH) |
| Time | Latitude | Longitude | Altitude | Speed | Heading |
|---|---|---|---|---|---|
| 2026-05-07 09:29 | 62.52974 | 114.01846 | 1135 ft | 0 kts | 146° |
| 2026-05-07 09:33 | 62.52973 | 114.01848 | 1135 ft | 1 kts | 146° |
| 2026-05-07 09:33 | 62.52953 | 114.01874 | 1135 ft | 5 kts | 158° |
| 2026-05-07 09:34 | 62.52907 | 114.01848 | 1135 ft | 8 kts | 209° |
| 2026-05-07 09:34 | 62.52869 | 114.01847 | 1135 ft | 6 kts | 147° |
| 2026-05-07 09:34 | 62.52858 | 114.01947 | 1135 ft | 9 kts | 58° |
| 2026-05-07 09:34 | 62.52895 | 114.02068 | 1135 ft | 10 kts | 61° |
| 2026-05-07 09:35 | 62.52948 | 114.02230 | 1135 ft | 15 kts | 55° |
| 2026-05-07 09:35 | 62.53018 | 114.02451 | 1135 ft | 20 kts | 56° |
| 2026-05-07 09:35 | 62.53102 | 114.02719 | 1137 ft | 22 kts | 56° |
| 2026-05-07 09:35 | 62.53195 | 114.03016 | 1139 ft | 24 kts | 56° |
| 2026-05-07 09:36 | 62.53292 | 114.03326 | 1145 ft | 25 kts | 56° |
| 2026-05-07 09:36 | 62.53392 | 114.03646 | 1151 ft | 25 kts | 56° |
| 2026-05-07 09:36 | 62.53489 | 114.03958 | 1160 ft | 24 kts | 56° |
| 2026-05-07 09:36 | 62.53583 | 114.04263 | 1166 ft | 24 kts | 56° |
| 2026-05-07 09:37 | 62.53682 | 114.04579 | 1168 ft | 26 kts | 56° |
| 2026-05-07 09:37 | 62.53793 | 114.04935 | 1166 ft | 30 kts | 56° |
| 2026-05-07 09:37 | 62.53913 | 114.05318 | 1169 ft | 31 kts | 56° |
| 2026-05-07 09:37 | 62.54040 | 114.05724 | 1168 ft | 33 kts | 56° |
| 2026-05-07 09:38 | 62.54143 | 114.06007 | 1165 ft | 11 kts | 20° |
| 2026-05-07 09:38 | 62.54159 | 114.06014 | 1165 ft | 1 kts | 15° |
| 2026-05-07 09:38 | 62.54173 | 114.06062 | 1164 ft | 4 kts | 95° |
| 2026-05-07 09:38 | 62.54148 | 114.06068 | 1164 ft | 5 kts | 230° |
| 2026-05-07 09:39 | 62.54119 | 114.05976 | 1165 ft | 20 kts | 236° |
| 2026-05-07 09:39 | 62.53921 | 114.05341 | 1169 ft | 80 kts | 236° |
| 2026-05-07 09:39 | 62.53502 | 114.04002 | 1162 ft | 132 kts | 236° |
| 2026-05-07 09:39 | 62.52911 | 114.02116 | 1178 ft | 170 kts | 235° |
| 2026-05-07 09:40 | 62.52249 | 113.99993 | 1656 ft | 172 kts | 237° |
| 2026-05-07 09:40 | 62.51521 | 113.97869 | 2096 ft | 183 kts | 223° |
| 2026-05-07 09:40 | 62.50297 | 113.96942 | 2345 ft | 204 kts | 175° |
| 2026-05-07 09:40 | 62.48879 | 113.97768 | 2648 ft | 221 kts | 166° |
| 2026-05-07 09:41 | 62.47340 | 113.98688 | 2977 ft | 238 kts | 168° |
| 2026-05-07 09:41 | 62.45697 | 113.99602 | 3309 ft | 254 kts | 167° |
| 2026-05-07 09:41 | 62.43937 | 114.00595 | 3770 ft | 266 kts | 167° |
| 2026-05-07 09:41 | 62.42161 | 114.01608 | 4469 ft | 268 kts | 167° |
| 2026-05-07 09:42 | 62.40366 | 114.02638 | 5165 ft | 270 kts | 167° |
| 2026-05-07 09:42 | 62.38546 | 114.03693 | 5827 ft | 275 kts | 167° |
| 2026-05-07 09:42 | 62.36693 | 114.04772 | 6364 ft | 284 kts | 167° |
| 2026-05-07 09:42 | 62.34714 | 114.05895 | 6709 ft | 302 kts | 167° |
| 2026-05-07 09:43 | 62.32623 | 114.07101 | 7011 ft | 319 kts | 167° |
| 2026-05-07 09:43 | 62.30406 | 114.08388 | 7275 ft | 337 kts | 168° |
| 2026-05-07 09:43 | 62.28119 | 114.09696 | 7530 ft | 353 kts | 168° |
| 2026-05-07 09:43 | 62.25705 | 114.11066 | 7882 ft | 366 kts | 167° |
| 2026-05-07 09:44 | 62.23226 | 114.12501 | 8472 ft | 371 kts | 167° |
| 2026-05-07 09:44 | 62.20741 | 114.13927 | 9157 ft | 373 kts | 167° |
| 2026-05-07 09:44 | 62.18218 | 114.15350 | 9843 ft | 375 kts | 166° |
| 2026-05-07 09:44 | 62.15722 | 114.16759 | 10505 ft | 376 kts | 165° |
| 2026-05-07 09:45 | 62.13208 | 114.18200 | 11212 ft | 378 kts | 166° |
| 2026-05-07 09:45 | 62.10649 | 114.19669 | 11870 ft | 383 kts | 166° |
| 2026-05-07 09:45 | 62.08073 | 114.21141 | 12445 ft | 390 kts | 167° |
| 2026-05-07 09:45 | 62.05435 | 114.22647 | 13021 ft | 398 kts | 168° |
| 2026-05-07 09:46 | 62.02740 | 114.24177 | 13573 ft | 405 kts | 168° |
| 2026-05-07 09:46 | 62.00048 | 114.25690 | 14086 ft | 408 kts | 169° |
| 2026-05-07 09:46 | 61.97289 | 114.27239 | 14596 ft | 413 kts | 168° |
| 2026-05-07 09:46 | 61.94491 | 114.28808 | 15134 ft | 416 kts | 168° |
| 2026-05-07 09:47 | 61.91640 | 114.30363 | 15667 ft | 422 kts | 170° |
| 2026-05-07 09:47 | 61.88782 | 114.31647 | 16246 ft | 425 kts | 172° |
| 2026-05-07 09:47 | 61.85898 | 114.32927 | 16845 ft | 428 kts | 172° |
| 2026-05-07 09:47 | 61.82966 | 114.34229 | 17425 ft | 432 kts | 171° |
| 2026-05-07 09:48 | 61.80057 | 114.35521 | 17976 ft | 436 kts | 171° |
| 2026-05-07 09:48 | 61.77070 | 114.36844 | 18521 ft | 440 kts | 171° |
| 2026-05-07 09:48 | 61.74034 | 114.38182 | 19058 ft | 444 kts | 171° |
| 2026-05-07 09:48 | 61.71005 | 114.39515 | 19564 ft | 449 kts | 171° |
| 2026-05-07 09:49 | 61.67980 | 114.40843 | 20056 ft | 453 kts | 171° |
| 2026-05-07 09:49 | 61.64859 | 114.42208 | 20533 ft | 457 kts | 171° |
| 2026-05-07 09:49 | 61.61747 | 114.43568 | 21008 ft | 461 kts | 171° |
| 2026-05-07 09:49 | 61.58607 | 114.44937 | 21477 ft | 465 kts | 171° |
| 2026-05-07 09:50 | 61.55456 | 114.46310 | 21927 ft | 468 kts | 171° |
| 2026-05-07 09:50 | 61.52242 | 114.47703 | 22370 ft | 472 kts | 171° |
| 2026-05-07 09:50 | 61.49001 | 114.49107 | 22813 ft | 475 kts | 171° |
| 2026-05-07 09:50 | 61.45794 | 114.50493 | 23240 ft | 478 kts | 171° |
| 2026-05-07 09:51 | 61.42488 | 114.51919 | 23633 ft | 482 kts | 171° |
| 2026-05-07 09:51 | 61.39292 | 114.53294 | 24026 ft | 485 kts | 171° |
| 2026-05-07 09:51 | 61.35984 | 114.54717 | 24438 ft | 488 kts | 171° |
| 2026-05-07 09:51 | 61.32650 | 114.56145 | 24850 ft | 491 kts | 171° |
| 2026-05-07 09:52 | 61.29295 | 114.57582 | 25234 ft | 494 kts | 171° |
| 2026-05-07 09:52 | 61.25996 | 114.58988 | 25602 ft | 497 kts | 171° |
| 2026-05-07 09:52 | 61.22634 | 114.60418 | 25985 ft | 500 kts | 171° |
| 2026-05-07 09:52 | 61.19221 | 114.61868 | 26368 ft | 502 kts | 171° |
| 2026-05-07 09:53 | 61.15772 | 114.63330 | 26726 ft | 505 kts | 171° |
| 2026-05-07 09:53 | 61.12331 | 114.64785 | 27076 ft | 508 kts | 171° |
| 2026-05-07 09:53 | 61.08870 | 114.66246 | 27410 ft | 510 kts | 172° |
| 2026-05-07 09:53 | 61.05431 | 114.67696 | 27736 ft | 513 kts | 172° |
| 2026-05-07 09:54 | 61.01947 | 114.69160 | 28060 ft | 515 kts | 172° |
| 2026-05-07 09:54 | 60.98419 | 114.70644 | 28367 ft | 518 kts | 172° |
| 2026-05-07 09:54 | 60.94930 | 114.72104 | 28643 ft | 520 kts | 172° |
| 2026-05-07 09:54 | 60.91364 | 114.73592 | 28955 ft | 522 kts | 171° |
| 2026-05-07 09:55 | 60.87853 | 114.75057 | 29367 ft | 521 kts | 172° |
| 2026-05-07 09:55 | 60.84310 | 114.76531 | 29798 ft | 520 kts | 172° |
| 2026-05-07 09:55 | 60.80801 | 114.78003 | 30210 ft | 519 kts | 170° |
| 2026-05-07 09:55 | 60.77300 | 114.80062 | 30606 ft | 521 kts | 162° |
| 2026-05-07 09:56 | 60.74003 | 114.82890 | 30970 ft | 522 kts | 155° |
| 2026-05-07 09:56 | 60.70837 | 114.86563 | 31309 ft | 522 kts | 147° |
| 2026-05-07 09:56 | 60.67947 | 114.90921 | 31661 ft | 521 kts | 140° |
| 2026-05-07 09:56 | 60.65340 | 114.95918 | 32051 ft | 519 kts | 132° |
| 2026-05-07 09:57 | 60.62922 | 115.01378 | 32418 ft | 517 kts | 130° |
| 2026-05-07 09:57 | 60.60574 | 115.06820 | 32784 ft | 515 kts | 130° |
| 2026-05-07 09:57 | 60.58229 | 115.12253 | 33124 ft | 514 kts | 130° |
| 2026-05-07 09:57 | 60.55853 | 115.17710 | 33444 ft | 514 kts | 130° |
| 2026-05-07 09:58 | 60.53491 | 115.23084 | 33775 ft | 513 kts | 130° |
| 2026-05-07 09:58 | 60.51128 | 115.28423 | 34112 ft | 511 kts | 130° |
| 2026-05-07 09:58 | 60.48777 | 115.33707 | 34447 ft | 510 kts | 130° |
| 2026-05-07 09:58 | 60.46392 | 115.39050 | 34771 ft | 509 kts | 130° |
| 2026-05-07 09:59 | 60.44031 | 115.44321 | 35042 ft | 508 kts | 130° |
| 2026-05-07 09:59 | 60.41678 | 115.49567 | 35242 ft | 508 kts | 130° |
| 2026-05-07 09:59 | 60.39317 | 115.54816 | 35414 ft | 509 kts | 130° |
| 2026-05-07 09:59 | 60.36930 | 115.60111 | 35589 ft | 510 kts | 130° |
| 2026-05-07 10:00 | 60.34561 | 115.65353 | 35762 ft | 510 kts | 131° |
| 2026-05-07 10:00 | 60.32167 | 115.70642 | 35926 ft | 511 kts | 131° |
| 2026-05-07 10:00 | 60.29775 | 115.75910 | 36063 ft | 511 kts | 131° |
| 2026-05-07 10:00 | 60.27410 | 115.81105 | 36180 ft | 512 kts | 131° |
| 2026-05-07 10:01 | 60.24945 | 115.86346 | 36296 ft | 513 kts | 135° |
| 2026-05-07 10:01 | 60.22225 | 115.90993 | 36409 ft | 514 kts | 143° |
| 2026-05-07 10:01 | 60.19259 | 115.94881 | 36541 ft | 515 kts | 151° |
| 2026-05-07 10:01 | 60.16076 | 115.97993 | 36699 ft | 514 kts | 159° |
| 2026-05-07 10:02 | 60.12694 | 116.00302 | 36835 ft | 514 kts | 166° |
| 2026-05-07 10:02 | 60.05666 | 116.02403 | 36883 ft | 512 kts | 178° |
| 2026-05-07 10:03 | 59.98615 | 116.03284 | 36885 ft | 511 kts | 178° |
| 2026-05-07 10:03 | 59.91528 | 116.04204 | 36894 ft | 511 kts | 178° |
| 2026-05-07 10:04 | 59.84489 | 116.05177 | 36884 ft | 511 kts | 178° |
| 2026-05-07 10:04 | 59.77404 | 116.06175 | 36887 ft | 512 kts | 177° |
| 2026-05-07 10:05 | 59.70332 | 116.07169 | 36911 ft | 513 kts | 177° |
| 2026-05-07 10:05 | 59.63283 | 116.08157 | 36904 ft | 512 kts | 177° |
| 2026-05-07 10:06 | 59.56171 | 116.09148 | 36895 ft | 511 kts | 177° |
| 2026-05-07 10:06 | 59.49130 | 116.10126 | 36884 ft | 512 kts | 177° |
| 2026-05-07 10:07 | 59.42048 | 116.11107 | 36880 ft | 512 kts | 177° |
| 2026-05-07 10:07 | 59.34982 | 116.12080 | 36895 ft | 512 kts | 177° |
| 2026-05-07 10:08 | 59.27923 | 116.13048 | 36911 ft | 511 kts | 176° |
| 2026-05-07 10:08 | 59.20865 | 116.14019 | 36918 ft | 511 kts | 177° |
| 2026-05-07 10:09 | 59.13775 | 116.14992 | 36933 ft | 511 kts | 176° |
| 2026-05-07 10:09 | 59.06719 | 116.15955 | 36926 ft | 511 kts | 176° |
| 2026-05-07 10:10 | 58.99632 | 116.16919 | 36930 ft | 511 kts | 176° |
| 2026-05-07 10:10 | 58.92609 | 116.17868 | 36923 ft | 511 kts | 176° |
| 2026-05-07 10:11 | 58.85529 | 116.18823 | 36917 ft | 511 kts | 176° |
| 2026-05-07 10:11 | 58.78487 | 116.19769 | 36923 ft | 511 kts | 176° |
| 2026-05-07 10:12 | 58.71428 | 116.20715 | 36932 ft | 511 kts | 176° |
| 2026-05-07 10:12 | 58.64353 | 116.21657 | 36931 ft | 510 kts | 176° |
| 2026-05-07 10:13 | 58.57340 | 116.22584 | 36942 ft | 510 kts | 176° |
| 2026-05-07 10:13 | 58.50269 | 116.23515 | 36949 ft | 510 kts | 176° |
| 2026-05-07 10:14 | 58.43208 | 116.24442 | 36958 ft | 510 kts | 176° |
| 2026-05-07 10:14 | 58.36185 | 116.25364 | 36963 ft | 510 kts | 176° |
| 2026-05-07 10:15 | 58.29113 | 116.26285 | 36966 ft | 510 kts | 176° |
| 2026-05-07 10:15 | 58.22073 | 116.27197 | 36947 ft | 510 kts | 176° |
| 2026-05-07 10:16 | 58.15019 | 116.28108 | 36949 ft | 510 kts | 176° |
| 2026-05-07 10:16 | 58.07982 | 116.29015 | 36952 ft | 510 kts | 176° |
| 2026-05-07 10:17 | 58.00959 | 116.29914 | 36971 ft | 510 kts | 176° |
| 2026-05-07 10:17 | 57.93888 | 116.30816 | 36985 ft | 510 kts | 176° |
| 2026-05-07 10:18 | 57.86877 | 116.31709 | 36990 ft | 509 kts | 176° |
| 2026-05-07 10:18 | 57.79810 | 116.32606 | 36999 ft | 509 kts | 176° |
| 2026-05-07 10:19 | 57.72784 | 116.33492 | 37016 ft | 510 kts | 176° |
| 2026-05-07 10:19 | 57.65744 | 116.34377 | 37019 ft | 509 kts | 176° |
| 2026-05-07 10:20 | 57.58704 | 116.35259 | 37015 ft | 510 kts | 176° |
| 2026-05-07 10:20 | 57.51633 | 116.36140 | 37021 ft | 509 kts | 176° |
| 2026-05-07 10:21 | 57.44643 | 116.37008 | 37019 ft | 509 kts | 176° |
| 2026-05-07 10:21 | 57.37592 | 116.37881 | 37012 ft | 509 kts | 176° |
| 2026-05-07 10:22 | 57.30553 | 116.38748 | 37018 ft | 510 kts | 176° |
| 2026-05-07 10:22 | 57.23491 | 116.39616 | 37028 ft | 510 kts | 176° |
| 2026-05-07 10:23 | 57.16443 | 116.40479 | 37030 ft | 510 kts | 176° |
| 2026-05-07 10:23 | 57.09402 | 116.41335 | 37021 ft | 510 kts | 176° |
| 2026-05-07 10:24 | 57.02337 | 116.42191 | 37020 ft | 510 kts | 176° |
| 2026-05-07 10:24 | 56.95305 | 116.43043 | 37011 ft | 510 kts | 176° |
| 2026-05-07 10:25 | 56.88259 | 116.43890 | 36991 ft | 510 kts | 176° |
| 2026-05-07 10:25 | 56.81242 | 116.44730 | 36984 ft | 509 kts | 176° |
| 2026-05-07 10:26 | 56.74186 | 116.45573 | 36970 ft | 509 kts | 176° |
| 2026-05-07 10:26 | 56.67133 | 116.46415 | 36977 ft | 510 kts | 176° |
| 2026-05-07 10:27 | 56.60083 | 116.47255 | 36983 ft | 509 kts | 176° |
| 2026-05-07 10:27 | 56.53050 | 116.48089 | 36983 ft | 510 kts | 176° |
| 2026-05-07 10:28 | 56.46002 | 116.48920 | 36993 ft | 510 kts | 176° |
| 2026-05-07 10:28 | 56.38964 | 116.49743 | 37012 ft | 509 kts | 176° |
| 2026-05-07 10:29 | 56.31900 | 116.50566 | 37022 ft | 510 kts | 176° |
| 2026-05-07 10:29 | 56.24891 | 116.51386 | 37030 ft | 510 kts | 176° |
| 2026-05-07 10:30 | 56.14304 | 116.52615 | 37038 ft | 509 kts | 176° |
| 2026-05-07 10:30 | 56.07249 | 116.53432 | 37029 ft | 509 kts | 176° |
| 2026-05-07 10:31 | 56.00215 | 116.54242 | 37025 ft | 509 kts | 176° |
| 2026-05-07 10:31 | 55.93182 | 116.55048 | 37018 ft | 510 kts | 175° |
| 2026-05-07 10:32 | 55.86124 | 116.55856 | 37005 ft | 510 kts | 175° |
| 2026-05-07 10:32 | 55.79067 | 116.56660 | 36982 ft | 509 kts | 175° |
| 2026-05-07 10:33 | 55.72067 | 116.57455 | 36978 ft | 509 kts | 176° |
| 2026-05-07 10:33 | 55.65026 | 116.58252 | 36983 ft | 509 kts | 175° |
| 2026-05-07 10:34 | 55.57985 | 116.59046 | 36988 ft | 510 kts | 175° |
| 2026-05-07 10:34 | 55.50921 | 116.59840 | 36992 ft | 510 kts | 175° |
| 2026-05-07 10:35 | 55.43847 | 116.60632 | 36997 ft | 510 kts | 175° |
| 2026-05-07 10:35 | 55.36819 | 116.61414 | 37000 ft | 510 kts | 175° |
| 2026-05-07 10:36 | 55.29768 | 116.62193 | 36998 ft | 510 kts | 175° |
| 2026-05-07 10:36 | 55.22711 | 116.62973 | 36998 ft | 510 kts | 175° |
| 2026-05-07 10:37 | 55.15657 | 116.63749 | 36996 ft | 510 kts | 175° |
| 2026-05-07 10:37 | 55.08621 | 116.64523 | 37003 ft | 509 kts | 175° |
| 2026-05-07 10:38 | 55.01594 | 116.65292 | 36994 ft | 509 kts | 176° |
| 2026-05-07 10:38 | 54.94527 | 116.66062 | 36988 ft | 510 kts | 176° |
| 2026-05-07 10:39 | 54.87471 | 116.66828 | 36989 ft | 510 kts | 176° |
| 2026-05-07 10:39 | 54.80427 | 116.67590 | 36990 ft | 510 kts | 176° |
| 2026-05-07 10:40 | 54.73368 | 116.68353 | 36985 ft | 510 kts | 176° |
| 2026-05-07 10:40 | 54.66320 | 116.69112 | 36988 ft | 510 kts | 176° |
| 2026-05-07 10:41 | 54.59275 | 116.69866 | 36989 ft | 510 kts | 176° |
| 2026-05-07 10:41 | 54.52208 | 116.70620 | 36990 ft | 510 kts | 176° |
| 2026-05-07 10:42 | 54.45142 | 116.71371 | 36991 ft | 511 kts | 176° |
| 2026-05-07 10:42 | 54.38102 | 116.72117 | 36994 ft | 511 kts | 176° |
| 2026-05-07 10:43 | 54.31007 | 116.72866 | 37245 ft | 512 kts | 176° |
| 2026-05-07 10:43 | 54.27478 | 116.73238 | 37120 ft | 510 kts | 176° |
| 2026-05-07 10:43 | 54.23975 | 116.73607 | 37061 ft | 509 kts | 176° |
| 2026-05-07 10:44 | 54.16934 | 116.74348 | 37012 ft | 509 kts | 176° |
| 2026-05-07 10:44 | 54.09898 | 116.75085 | 36995 ft | 509 kts | 176° |
| 2026-05-07 10:45 | 54.02834 | 116.75821 | 36983 ft | 509 kts | 176° |
| 2026-05-07 10:45 | 53.95783 | 116.76551 | 36982 ft | 510 kts | 176° |
| 2026-05-07 10:46 | 53.88749 | 116.77280 | 36979 ft | 510 kts | 176° |
| 2026-05-07 10:46 | 53.81711 | 116.78007 | 36989 ft | 509 kts | 176° |
| 2026-05-07 10:47 | 53.74640 | 116.78735 | 36996 ft | 509 kts | 176° |
| 2026-05-07 10:47 | 53.67612 | 116.79457 | 36998 ft | 509 kts | 176° |
| 2026-05-07 10:48 | 53.60557 | 116.80177 | 36991 ft | 510 kts | 176° |
| 2026-05-07 10:48 | 53.53503 | 116.80894 | 36995 ft | 509 kts | 176° |
| 2026-05-07 10:49 | 53.46467 | 116.81609 | 36990 ft | 509 kts | 176° |
| 2026-05-07 10:49 | 53.39400 | 116.82325 | 36988 ft | 509 kts | 176° |
| 2026-05-07 10:50 | 53.32388 | 116.83034 | 36989 ft | 509 kts | 176° |
| 2026-05-07 10:50 | 53.25337 | 116.83394 | 37025 ft | 511 kts | 181° |
| 2026-05-07 10:51 | 53.21785 | 116.83109 | 37180 ft | 511 kts | 185° |
| 2026-05-07 10:51 | 53.18264 | 116.82494 | 37352 ft | 510 kts | 188° |
| 2026-05-07 10:51 | 53.14765 | 116.81549 | 37502 ft | 509 kts | 192° |
| 2026-05-07 10:51 | 53.11310 | 116.80326 | 37624 ft | 509 kts | 193° |
| 2026-05-07 10:52 | 53.07859 | 116.79085 | 37750 ft | 510 kts | 193° |
| 2026-05-07 10:52 | 53.04432 | 116.77868 | 37873 ft | 510 kts | 193° |
| 2026-05-07 10:52 | 53.00980 | 116.76652 | 37978 ft | 510 kts | 193° |
| 2026-05-07 10:52 | 52.97501 | 116.75430 | 37984 ft | 510 kts | 193° |
| 2026-05-07 10:53 | 52.90562 | 116.73006 | 37986 ft | 510 kts | 193° |
| 2026-05-07 10:53 | 52.83657 | 116.70604 | 37986 ft | 510 kts | 193° |
| 2026-05-07 10:54 | 52.76726 | 116.68199 | 37988 ft | 511 kts | 193° |
| 2026-05-07 10:54 | 52.69799 | 116.65801 | 37986 ft | 510 kts | 193° |
| 2026-05-07 10:55 | 52.62908 | 116.63424 | 37987 ft | 510 kts | 193° |
| 2026-05-07 10:55 | 52.55943 | 116.61030 | 37985 ft | 511 kts | 193° |
| 2026-05-07 10:56 | 52.49013 | 116.58654 | 37984 ft | 511 kts | 193° |
| 2026-05-07 10:56 | 52.42091 | 116.56290 | 37981 ft | 511 kts | 193° |
| 2026-05-07 10:57 | 52.35139 | 116.53923 | 37977 ft | 511 kts | 193° |
| 2026-05-07 10:57 | 52.28194 | 116.51565 | 37976 ft | 511 kts | 193° |
| 2026-05-07 10:58 | 52.21302 | 116.49233 | 37972 ft | 511 kts | 193° |
| 2026-05-07 10:58 | 52.14318 | 116.46877 | 37968 ft | 511 kts | 193° |
| 2026-05-07 10:59 | 52.07396 | 116.44550 | 37967 ft | 511 kts | 193° |
| 2026-05-07 10:59 | 52.00478 | 116.42233 | 37967 ft | 511 kts | 193° |
| 2026-05-07 11:00 | 51.93535 | 116.39915 | 37966 ft | 511 kts | 193° |
| 2026-05-07 11:00 | 51.86579 | 116.37598 | 37965 ft | 510 kts | 193° |
| 2026-05-07 11:01 | 51.79644 | 116.35298 | 37972 ft | 510 kts | 193° |
| 2026-05-07 11:01 | 51.72749 | 116.33015 | 37975 ft | 511 kts | 193° |
| 2026-05-07 11:02 | 51.65812 | 116.30727 | 37977 ft | 511 kts | 193° |
| 2026-05-07 11:02 | 51.58845 | 116.28436 | 37980 ft | 511 kts | 193° |
| 2026-05-07 11:03 | 51.51890 | 116.26157 | 37985 ft | 511 kts | 193° |
| 2026-05-07 11:03 | 51.44953 | 116.23890 | 37989 ft | 511 kts | 193° |
| 2026-05-07 11:04 | 51.38024 | 116.21632 | 37991 ft | 511 kts | 193° |
| 2026-05-07 11:04 | 51.31111 | 116.19387 | 37991 ft | 511 kts | 192° |
| 2026-05-07 11:05 | 51.24156 | 116.17137 | 37988 ft | 511 kts | 193° |
| 2026-05-07 11:05 | 51.17187 | 116.14888 | 37989 ft | 511 kts | 193° |
| 2026-05-07 11:06 | 51.10282 | 116.12666 | 37992 ft | 511 kts | 193° |
| 2026-05-07 11:06 | 51.03343 | 116.10442 | 37991 ft | 511 kts | 193° |
| 2026-05-07 11:07 | 50.96405 | 116.08225 | 37991 ft | 510 kts | 193° |
| 2026-05-07 11:07 | 50.89442 | 116.06005 | 37992 ft | 511 kts | 193° |
| 2026-05-07 11:08 | 50.82511 | 116.03803 | 37990 ft | 511 kts | 193° |
| 2026-05-07 11:08 | 50.75532 | 116.01592 | 37992 ft | 511 kts | 193° |
| 2026-05-07 11:09 | 50.68586 | 115.99396 | 37992 ft | 511 kts | 193° |
| 2026-05-07 11:09 | 50.61647 | 115.97209 | 37995 ft | 510 kts | 193° |
| 2026-05-07 11:10 | 50.54715 | 115.95034 | 37996 ft | 510 kts | 193° |
| 2026-05-07 11:10 | 50.47780 | 115.92863 | 37997 ft | 511 kts | 193° |
| 2026-05-07 11:11 | 50.40805 | 115.90688 | 37996 ft | 511 kts | 193° |
| 2026-05-07 11:11 | 50.33898 | 115.88538 | 37997 ft | 510 kts | 193° |
| 2026-05-07 11:12 | 50.26949 | 115.86383 | 37999 ft | 510 kts | 193° |
| 2026-05-07 11:12 | 50.20003 | 115.84234 | 37999 ft | 511 kts | 193° |
| 2026-05-07 11:13 | 50.13067 | 115.82095 | 37999 ft | 511 kts | 193° |
| 2026-05-07 11:13 | 50.06084 | 115.79946 | 38001 ft | 512 kts | 193° |
| 2026-05-07 11:14 | 49.99129 | 115.77814 | 38000 ft | 512 kts | 193° |
| 2026-05-07 11:14 | 49.92167 | 115.75622 | 37999 ft | 511 kts | 195° |
| 2026-05-07 11:15 | 49.85396 | 115.72581 | 38000 ft | 509 kts | 201° |
| 2026-05-07 11:15 | 49.78720 | 115.68946 | 37999 ft | 509 kts | 201° |
| 2026-05-07 11:16 | 49.72070 | 115.65356 | 38003 ft | 509 kts | 201° |
| 2026-05-07 11:16 | 49.65408 | 115.61775 | 38002 ft | 509 kts | 201° |
| 2026-05-07 11:17 | 49.58741 | 115.58204 | 38002 ft | 509 kts | 201° |
| 2026-05-07 11:17 | 49.52065 | 115.54639 | 37999 ft | 509 kts | 201° |
| 2026-05-07 11:18 | 49.45386 | 115.51083 | 38003 ft | 509 kts | 201° |
| 2026-05-07 11:18 | 49.38712 | 115.47539 | 37999 ft | 509 kts | 201° |
| 2026-05-07 11:19 | 49.32069 | 115.44022 | 38004 ft | 509 kts | 202° |
| 2026-05-07 11:19 | 49.25358 | 115.40480 | 38006 ft | 510 kts | 202° |
| 2026-05-07 11:20 | 49.18702 | 115.36975 | 38005 ft | 510 kts | 202° |
| 2026-05-07 11:20 | 49.12018 | 115.33466 | 38013 ft | 510 kts | 201° |
| 2026-05-07 11:21 | 49.05295 | 115.29947 | 38014 ft | 510 kts | 201° |
| 2026-05-07 11:21 | 48.98605 | 115.26457 | 38021 ft | 510 kts | 201° |
| 2026-05-07 11:22 | 48.91924 | 115.22979 | 38024 ft | 510 kts | 201° |
| 2026-05-07 11:22 | 48.85222 | 115.19499 | 38014 ft | 510 kts | 201° |
| 2026-05-07 11:23 | 48.78525 | 115.16034 | 38023 ft | 510 kts | 201° |
| 2026-05-07 11:23 | 48.71838 | 115.12584 | 38030 ft | 510 kts | 201° |
| 2026-05-07 11:24 | 48.65129 | 115.09132 | 38036 ft | 510 kts | 201° |
| 2026-05-07 11:24 | 48.58464 | 115.05710 | 38034 ft | 511 kts | 201° |
| 2026-05-07 11:25 | 48.51759 | 115.02279 | 38030 ft | 511 kts | 201° |
| 2026-05-07 11:25 | 48.45015 | 114.98838 | 38027 ft | 511 kts | 201° |
| 2026-05-07 11:26 | 48.38315 | 114.95429 | 38028 ft | 511 kts | 201° |
| 2026-05-07 11:26 | 48.31590 | 114.92017 | 38027 ft | 510 kts | 201° |
| 2026-05-07 11:27 | 48.24902 | 114.88634 | 38027 ft | 510 kts | 201° |
| 2026-05-07 11:27 | 48.18220 | 114.85259 | 38030 ft | 511 kts | 201° |
| 2026-05-07 11:28 | 48.11472 | 114.81864 | 38035 ft | 511 kts | 201° |
| 2026-05-07 11:28 | 48.04781 | 114.78509 | 38038 ft | 510 kts | 201° |
| 2026-05-07 11:29 | 47.98063 | 114.75150 | 38041 ft | 510 kts | 201° |
| 2026-05-07 11:29 | 47.91356 | 114.71806 | 38044 ft | 510 kts | 202° |
| 2026-05-07 11:30 | 47.84610 | 114.68450 | 38046 ft | 511 kts | 202° |
| 2026-05-07 11:30 | 47.77913 | 114.65128 | 38048 ft | 511 kts | 202° |
| 2026-05-07 11:31 | 47.71165 | 114.61790 | 38052 ft | 511 kts | 202° |
| 2026-05-07 11:31 | 47.64444 | 114.58472 | 38056 ft | 510 kts | 202° |
| 2026-05-07 11:32 | 47.54359 | 114.53526 | 38054 ft | 510 kts | 202° |
| 2026-05-07 11:33 | 47.47661 | 114.50249 | 38057 ft | 511 kts | 202° |
| 2026-05-07 11:33 | 47.40953 | 114.46973 | 38057 ft | 510 kts | 202° |
| 2026-05-07 11:34 | 47.34223 | 114.43691 | 38056 ft | 510 kts | 202° |
| 2026-05-07 11:34 | 47.27506 | 114.40427 | 38057 ft | 510 kts | 202° |
| 2026-05-07 11:35 | 47.20806 | 114.37177 | 38060 ft | 510 kts | 202° |
| 2026-05-07 11:35 | 47.14043 | 114.33907 | 38060 ft | 510 kts | 201° |
| 2026-05-07 11:36 | 47.07354 | 114.30680 | 38060 ft | 510 kts | 201° |
| 2026-05-07 11:36 | 47.00629 | 114.27445 | 38059 ft | 511 kts | 201° |
| 2026-05-07 11:37 | 46.93910 | 114.24223 | 38059 ft | 510 kts | 201° |
| 2026-05-07 11:37 | 46.87165 | 114.20997 | 38051 ft | 510 kts | 202° |
| 2026-05-07 11:38 | 46.80432 | 114.17778 | 38055 ft | 510 kts | 202° |
| 2026-05-07 11:38 | 46.73706 | 114.14575 | 38058 ft | 511 kts | 202° |
| 2026-05-07 11:39 | 46.66988 | 114.11388 | 38061 ft | 511 kts | 202° |
| 2026-05-07 11:39 | 46.60222 | 114.08186 | 38068 ft | 511 kts | 202° |
| 2026-05-07 11:40 | 46.53503 | 114.05012 | 38065 ft | 511 kts | 202° |
| 2026-05-07 11:40 | 46.46769 | 114.01839 | 38068 ft | 510 kts | 202° |
| 2026-05-07 11:41 | 46.40005 | 113.98662 | 38065 ft | 510 kts | 202° |
| 2026-05-07 11:41 | 46.33295 | 113.95518 | 38070 ft | 510 kts | 202° |
| 2026-05-07 11:42 | 46.26524 | 113.92350 | 38074 ft | 512 kts | 202° |
| 2026-05-07 11:42 | 46.19776 | 113.89201 | 38082 ft | 511 kts | 202° |
| 2026-05-07 11:43 | 46.13038 | 113.86065 | 38076 ft | 511 kts | 202° |
| 2026-05-07 11:43 | 46.06313 | 113.82946 | 38084 ft | 512 kts | 202° |
| 2026-05-07 11:44 | 45.99520 | 113.79802 | 38085 ft | 513 kts | 202° |
| 2026-05-07 11:44 | 45.92746 | 113.76677 | 38088 ft | 512 kts | 202° |
| 2026-05-07 11:45 | 45.85976 | 113.73560 | 38096 ft | 511 kts | 202° |
| 2026-05-07 11:45 | 45.79239 | 113.70466 | 38096 ft | 511 kts | 202° |
| 2026-05-07 11:46 | 45.72469 | 113.67364 | 38109 ft | 511 kts | 202° |
| 2026-05-07 11:46 | 45.65726 | 113.64282 | 38108 ft | 512 kts | 202° |
| 2026-05-07 11:47 | 45.58947 | 113.61189 | 38113 ft | 513 kts | 203° |
| 2026-05-07 11:47 | 45.52176 | 113.58111 | 38114 ft | 512 kts | 202° |
| 2026-05-07 11:48 | 45.45416 | 113.55046 | 38118 ft | 511 kts | 202° |
| 2026-05-07 11:48 | 45.38674 | 113.51998 | 38129 ft | 511 kts | 203° |
| 2026-05-07 11:49 | 45.31897 | 113.48940 | 38105 ft | 512 kts | 203° |
| 2026-05-07 11:49 | 45.25102 | 113.45882 | 38126 ft | 511 kts | 203° |
| 2026-05-07 11:50 | 45.18343 | 113.42846 | 38129 ft | 512 kts | 203° |
| 2026-05-07 11:50 | 45.11580 | 113.39817 | 38133 ft | 512 kts | 203° |
| 2026-05-07 11:51 | 45.04798 | 113.36787 | 38135 ft | 511 kts | 203° |
| 2026-05-07 11:51 | 44.98031 | 113.33771 | 38146 ft | 512 kts | 202° |
| 2026-05-07 11:52 | 44.91274 | 113.30765 | 38138 ft | 512 kts | 202° |
| 2026-05-07 11:52 | 44.84505 | 113.27838 | 38147 ft | 513 kts | 200° |
| 2026-05-07 11:53 | 44.77506 | 113.25719 | 38149 ft | 518 kts | 193° |
| 2026-05-07 11:53 | 44.70343 | 113.24716 | 38149 ft | 522 kts | 186° |
| 2026-05-07 11:54 | 44.63097 | 113.24484 | 38148 ft | 523 kts | 185° |
| 2026-05-07 11:54 | 44.55848 | 113.24254 | 38146 ft | 523 kts | 185° |
| 2026-05-07 11:55 | 44.48585 | 113.24009 | 38154 ft | 524 kts | 186° |
| 2026-05-07 11:55 | 44.41306 | 113.23762 | 38148 ft | 523 kts | 186° |
| 2026-05-07 11:56 | 44.34054 | 113.23515 | 38151 ft | 523 kts | 186° |
| 2026-05-07 11:56 | 44.26798 | 113.23269 | 38150 ft | 523 kts | 186° |
| 2026-05-07 11:57 | 44.19534 | 113.23024 | 38202 ft | 523 kts | 186° |
| 2026-05-07 11:57 | 44.12259 | 113.22775 | 38167 ft | 523 kts | 186° |
| 2026-05-07 11:58 | 44.05003 | 113.22529 | 38160 ft | 523 kts | 186° |
| 2026-05-07 11:58 | 43.97759 | 113.22279 | 38168 ft | 522 kts | 186° |
| 2026-05-07 11:59 | 43.90495 | 113.22033 | 38158 ft | 523 kts | 186° |
| 2026-05-07 11:59 | 43.83224 | 113.21790 | 38151 ft | 524 kts | 186° |
| 2026-05-07 12:00 | 43.76004 | 113.21549 | 38154 ft | 524 kts | 186° |
| 2026-05-07 12:00 | 43.68693 | 113.21305 | 38162 ft | 524 kts | 186° |
| 2026-05-07 12:01 | 43.61457 | 113.21063 | 38163 ft | 524 kts | 186° |
| 2026-05-07 12:01 | 43.54182 | 113.20822 | 38171 ft | 524 kts | 186° |
| 2026-05-07 12:02 | 43.46874 | 113.20579 | 38157 ft | 524 kts | 186° |
| 2026-05-07 12:02 | 43.39630 | 113.20343 | 38166 ft | 524 kts | 187° |
| 2026-05-07 12:03 | 43.32346 | 113.20103 | 38163 ft | 524 kts | 187° |
| 2026-05-07 12:03 | 43.25105 | 113.19863 | 38160 ft | 523 kts | 187° |
| 2026-05-07 12:04 | 43.17815 | 113.19622 | 38166 ft | 524 kts | 187° |
| 2026-05-07 12:04 | 43.10551 | 113.19383 | 38171 ft | 524 kts | 187° |
| 2026-05-07 12:05 | 43.03284 | 113.19151 | 38173 ft | 524 kts | 187° |
| 2026-05-07 12:05 | 42.95980 | 113.18912 | 38175 ft | 524 kts | 187° |
| 2026-05-07 12:06 | 42.88722 | 113.18673 | 38172 ft | 524 kts | 187° |
| 2026-05-07 12:06 | 42.81454 | 113.18433 | 38161 ft | 524 kts | 187° |
| 2026-05-07 12:07 | 42.74159 | 113.18192 | 38174 ft | 525 kts | 187° |
| 2026-05-07 12:07 | 42.66894 | 113.17950 | 38168 ft | 525 kts | 187° |
| 2026-05-07 12:08 | 42.59586 | 113.17709 | 38172 ft | 525 kts | 187° |
| 2026-05-07 12:08 | 42.52305 | 113.17468 | 38169 ft | 526 kts | 187° |
| 2026-05-07 12:09 | 42.45015 | 113.17231 | 38178 ft | 526 kts | 187° |
| 2026-05-07 12:09 | 42.37709 | 113.16993 | 38184 ft | 525 kts | 187° |
| 2026-05-07 12:10 | 42.30438 | 113.16753 | 38198 ft | 524 kts | 187° |
| 2026-05-07 12:10 | 42.23119 | 113.16512 | 38195 ft | 525 kts | 187° |
| 2026-05-07 12:11 | 42.15866 | 113.16277 | 38209 ft | 525 kts | 187° |
| 2026-05-07 12:11 | 42.08563 | 113.16040 | 38200 ft | 524 kts | 187° |
| 2026-05-07 12:12 | 42.01271 | 113.15808 | 38220 ft | 524 kts | 187° |
| 2026-05-07 12:12 | 41.94033 | 113.15655 | 38188 ft | 526 kts | 185° |
| 2026-05-07 12:13 | 41.86679 | 113.16510 | 38204 ft | 535 kts | 175° |